createdAt,value
2018-09-14T00:01:45.486Z,33.50
2018-09-14T00:04:19.453Z,31.87
2018-09-14T00:06:52.328Z,31.37
2018-09-14T00:09:25.534Z,31.30
2018-09-14T00:11:58.646Z,29.77
2018-09-14T00:14:31.465Z,29.97
2018-09-14T00:17:10.397Z,29.90
2018-09-14T00:19:43.564Z,40.73
2018-09-14T00:22:17.874Z,42.30
2018-09-14T00:24:50.837Z,44.33
2018-09-14T00:27:25.040Z,44.07
2018-09-14T00:29:58.180Z,31.27
2018-09-14T00:32:36.385Z,31.37
2018-09-14T00:35:12.054Z,41.48
2018-09-14T00:37:46.026Z,43.33
2018-09-14T00:40:19.574Z,41.90
2018-09-14T00:42:55.217Z,43.67
2018-09-14T00:45:29.241Z,40.60
2018-09-14T00:48:03.481Z,40.25
2018-09-14T00:50:37.088Z,39.90
2018-09-14T00:53:11.840Z,44.33
2018-09-14T00:55:45.940Z,40.13
2018-09-14T00:58:19.657Z,43.67
2018-09-14T01:00:59.726Z,49.07
2018-09-14T01:03:32.876Z,44.47
2018-09-14T01:06:10.937Z,45.10
2018-09-14T01:08:48.911Z,43.40
2018-09-14T01:11:25.055Z,40.63
2018-09-14T01:13:59.443Z,37.10
2018-09-14T01:16:35.297Z,38.65
2018-09-14T01:19:13.703Z,37.43
2018-09-14T01:21:47.172Z,38.55
2018-09-14T01:24:20.712Z,41.37
2018-09-14T01:27:01.460Z,49.23
2018-09-14T01:29:34.710Z,47.93
2018-09-14T01:32:07.768Z,43.93
2018-09-14T01:34:41.008Z,44.73
2018-09-14T01:37:19.268Z,40.28
2018-09-14T01:39:57.084Z,36.87
2018-09-14T01:42:30.885Z,38.50
2018-09-14T01:45:06.971Z,40.00
2018-09-14T01:49:09.916Z,45.43
2018-09-14T01:51:43.643Z,42.65
2018-09-14T01:54:16.780Z,40.90
2018-09-14T01:56:54.984Z,40.57
2018-09-14T01:59:28.523Z,47.57
2018-09-14T02:02:02.973Z,46.17
2018-09-14T02:04:35.768Z,49.90
2018-09-14T02:07:10.432Z,53.63
2018-09-14T02:09:44.004Z,51.07
2018-09-14T02:12:18.801Z,52.00
2018-09-14T02:14:55.994Z,53.40
2018-09-14T02:17:29.385Z,52.50
2018-09-14T02:20:02.247Z,48.40
2018-09-14T02:22:35.796Z,49.55
2018-09-14T02:25:14.370Z,45.00
2018-09-14T02:27:49.406Z,50.33
2018-09-14T02:30:24.384Z,46.28
2018-09-14T02:32:57.409Z,46.50
2018-09-14T02:35:30.543Z,38.43
2018-09-14T02:38:03.823Z,35.73
2018-09-14T02:40:42.592Z,32.17
2018-09-14T02:43:15.857Z,30.53
2018-09-14T02:45:49.051Z,25.37
2018-09-14T02:48:26.779Z,28.67
2018-09-14T02:51:01.759Z,31.60
2018-09-14T02:53:35.570Z,31.40
2018-09-14T02:56:09.936Z,36.33
2018-09-14T02:58:44.384Z,34.73
2018-09-14T03:01:22.464Z,29.37
2018-09-14T03:03:55.511Z,31.67
2018-09-14T03:06:28.559Z,32.83
2018-09-14T03:09:01.752Z,33.80
2018-09-14T03:11:35.381Z,35.90
2018-09-14T03:14:08.619Z,37.83
2018-09-14T03:16:42.910Z,35.57
2018-09-14T03:19:15.915Z,38.53
2018-09-14T03:21:48.751Z,41.23
2018-09-14T03:24:22.305Z,37.93
2018-09-14T03:26:55.330Z,39.07
2018-09-14T03:29:28.308Z,43.98
2018-09-14T03:32:01.828Z,43.10
2018-09-14T03:34:35.818Z,36.60
2018-09-14T03:37:15.496Z,35.77
2018-09-14T03:39:48.889Z,35.23
2018-09-14T03:42:22.540Z,31.20
2018-09-14T03:44:55.671Z,30.17
2018-09-14T03:47:29.131Z,27.67
2018-09-14T03:50:03.509Z,31.53
2018-09-14T03:52:36.714Z,29.10
2018-09-14T03:55:09.543Z,30.50
2018-09-14T03:57:43.213Z,37.37
2018-09-14T04:00:16.154Z,33.20
2018-09-14T04:02:49.238Z,34.70
2018-09-14T04:05:22.631Z,30.60
2018-09-14T04:07:55.987Z,34.13
2018-09-14T04:10:29.792Z,31.23
2018-09-14T04:13:07.760Z,34.50
2018-09-14T04:15:41.204Z,31.87
2018-09-14T04:18:14.660Z,36.03
2018-09-14T04:20:55.300Z,34.83
2018-09-14T04:23:29.139Z,38.37
2018-09-14T04:26:03.501Z,38.40
2018-09-14T04:28:36.813Z,41.27
2018-09-14T04:31:10.579Z,45.90
2018-09-14T04:33:44.216Z,45.07
2018-09-14T04:36:17.829Z,57.07
2018-09-14T04:38:51.305Z,62.83
2018-09-14T04:41:25.143Z,48.10
2018-09-14T04:43:58.712Z,53.57
2018-09-14T04:46:32.205Z,149.27
2018-09-14T04:49:05.894Z,191.07
2018-09-14T04:51:39.241Z,184.43
2018-09-14T04:54:12.973Z,155.07
2018-09-14T04:56:46.452Z,67.80
2018-09-14T04:59:20.906Z,66.37
2018-09-14T05:01:58.934Z,71.67
2018-09-14T05:04:32.828Z,99.60
2018-09-14T05:07:06.875Z,169.53
2018-09-14T05:09:40.669Z,216.85
2018-09-14T05:12:14.388Z,170.23
2018-09-14T05:14:48.035Z,128.17
2018-09-14T05:17:28.330Z,126.13
2018-09-14T05:20:01.922Z,92.43
2018-09-14T05:22:35.860Z,64.00
2018-09-14T05:25:09.326Z,74.83
2018-09-14T05:27:42.665Z,90.97
2018-09-14T05:30:16.053Z,115.77
2018-09-14T05:32:49.245Z,75.47
2018-09-14T05:35:22.640Z,61.53
2018-09-14T05:38:03.075Z,53.13
2018-09-14T05:40:36.676Z,51.73
2018-09-14T05:43:09.869Z,52.23
2018-09-14T05:45:43.531Z,48.70
2018-09-14T05:48:19.054Z,161.43
2018-09-14T05:50:53.282Z,201.80
2018-09-14T05:53:26.745Z,60.03
2018-09-14T05:56:01.149Z,80.73
2018-09-14T05:58:34.798Z,107.47
2018-09-14T06:01:08.114Z,79.77
2018-09-14T06:03:41.835Z,92.13
2018-09-14T06:06:15.440Z,72.67
2018-09-14T06:08:49.140Z,50.87
2018-09-14T06:11:22.557Z,42.78
2018-09-14T06:14:03.128Z,34.37
2018-09-14T06:16:37.412Z,33.87
2018-09-14T06:19:10.855Z,35.13
2018-09-14T06:21:45.101Z,31.13
2018-09-14T06:24:18.503Z,33.73
2018-09-14T06:26:51.652Z,33.37
2018-09-14T06:29:25.577Z,31.77
2018-09-14T06:31:58.963Z,31.50
2018-09-14T06:34:32.475Z,32.53
2018-09-14T06:37:06.216Z,31.25
2018-09-14T06:39:39.763Z,30.73
2018-09-14T06:42:13.429Z,31.93
2018-09-14T06:44:47.121Z,32.47
2018-09-14T06:47:20.860Z,30.97
2018-09-14T06:50:00.830Z,31.20
2018-09-14T06:52:34.808Z,34.00
2018-09-14T06:55:08.121Z,36.37
2018-09-14T06:57:41.605Z,36.10
2018-09-14T07:00:22.130Z,31.87
2018-09-14T07:03:01.584Z,34.40
2018-09-14T07:05:35.221Z,35.43
2018-09-14T07:08:08.910Z,32.03
2018-09-14T07:10:43.069Z,31.37
2018-09-14T07:13:17.262Z,34.80
2018-09-14T07:15:50.947Z,33.90
2018-09-14T07:18:24.307Z,29.97
2018-09-14T07:20:57.853Z,31.47
2018-09-14T07:23:32.011Z,32.70
2018-09-14T07:26:05.763Z,32.03
2018-09-14T07:28:40.250Z,30.57
2018-09-14T07:31:19.519Z,33.93
2018-09-14T07:33:53.348Z,32.97
2018-09-14T07:36:26.990Z,33.40
2018-09-14T07:39:00.921Z,30.17
2018-09-14T07:41:35.286Z,35.93
2018-09-14T07:44:15.046Z,32.67
2018-09-14T07:46:50.012Z,33.63
2018-09-14T07:49:25.907Z,34.53
2018-09-14T07:51:59.695Z,32.87
2018-09-14T07:54:33.649Z,36.13
2018-09-14T07:57:07.133Z,33.80
2018-09-14T07:59:48.435Z,31.10
2018-09-14T08:02:21.985Z,31.07
2018-09-14T08:04:55.824Z,30.23
2018-09-14T08:07:29.474Z,30.43
2018-09-14T08:10:02.837Z,30.63
2018-09-14T08:12:36.356Z,29.37
2018-09-14T08:15:10.669Z,27.10
2018-09-14T08:17:43.980Z,30.13
2018-09-14T08:20:17.555Z,31.33
2018-09-14T08:22:51.086Z,29.57
2018-09-14T08:25:24.192Z,27.80
2018-09-14T08:27:57.562Z,31.20
2018-09-14T08:30:30.930Z,28.60
2018-09-14T08:33:04.466Z,29.97
2018-09-14T08:35:37.783Z,30.87
2018-09-14T08:38:11.160Z,28.17
2018-09-14T08:40:44.541Z,30.87
2018-09-14T08:43:24.411Z,31.97
2018-09-14T08:45:58.094Z,32.50
2018-09-14T08:48:31.684Z,36.07
2018-09-14T08:51:05.121Z,29.53
2018-09-14T08:53:38.328Z,27.03
2018-09-14T08:56:11.929Z,27.93
2018-09-14T08:58:45.724Z,25.53
2018-09-14T09:01:19.077Z,25.13
2018-09-14T09:03:54.092Z,26.00
2018-09-14T09:06:33.975Z,25.73
2018-09-14T09:09:11.291Z,26.87
2018-09-14T09:11:45.152Z,30.77
2018-09-14T09:14:18.530Z,25.67
2018-09-14T09:16:51.992Z,27.33
2018-09-14T09:19:25.880Z,28.77
2018-09-14T09:21:59.696Z,27.07
2018-09-14T09:24:33.056Z,28.40
2018-09-14T09:27:06.836Z,28.20
2018-09-14T09:29:47.253Z,28.93
2018-09-14T09:32:20.946Z,33.33
2018-09-14T09:34:54.827Z,27.50
2018-09-14T09:37:28.668Z,26.97
2018-09-14T09:40:02.342Z,30.23
2018-09-14T09:42:36.124Z,28.23
2018-09-14T09:45:09.567Z,30.30
2018-09-14T09:47:43.155Z,33.10
2018-09-14T09:50:16.350Z,29.67
2018-09-14T09:52:49.222Z,29.97
2018-09-14T09:55:22.284Z,32.63
2018-09-14T09:57:55.333Z,33.83
2018-09-14T10:00:32.568Z,29.13
2018-09-14T10:03:09.883Z,28.90
2018-09-14T10:05:47.055Z,29.97
2018-09-14T10:08:24.942Z,36.97
2018-09-14T10:10:58.033Z,29.53
2018-09-14T10:13:31.253Z,27.60
2018-09-14T10:16:04.168Z,23.10
2018-09-14T10:18:42.997Z,25.67
2018-09-14T10:21:16.418Z,22.40
2018-09-14T10:23:51.373Z,24.83
2018-09-14T10:26:24.665Z,24.40
2018-09-14T10:29:05.210Z,21.03
2018-09-14T10:31:38.161Z,28.00
2018-09-14T10:34:12.638Z,27.93
2018-09-14T10:36:46.063Z,28.60
2018-09-14T10:39:19.123Z,33.42
2018-09-14T10:41:52.109Z,29.63
2018-09-14T10:44:26.260Z,29.02
2018-09-14T10:46:59.552Z,29.53
2018-09-14T10:49:33.370Z,34.77
2018-09-14T10:52:06.353Z,29.23
2018-09-14T10:54:40.080Z,27.33
2018-09-14T10:57:18.163Z,30.00
2018-09-14T10:59:51.336Z,59.57
2018-09-14T11:02:25.255Z,35.50
2018-09-14T11:04:59.434Z,34.13
2018-09-14T11:07:32.544Z,33.83
2018-09-14T11:10:06.089Z,33.23
2018-09-14T11:12:39.384Z,31.53
2018-09-14T11:15:13.089Z,35.60
2018-09-14T11:17:54.523Z,45.37
2018-09-14T11:20:28.247Z,40.53
2018-09-14T11:23:01.430Z,43.03
2018-09-14T11:25:34.583Z,38.50
2018-09-14T11:28:07.717Z,35.13
2018-09-14T11:30:46.092Z,38.83
2018-09-14T11:33:23.281Z,36.77
2018-09-14T11:35:58.165Z,35.47
2018-09-14T11:38:39.820Z,34.07
2018-09-14T11:42:42.193Z,46.20
2018-09-14T11:45:15.743Z,41.70
2018-09-14T11:47:50.116Z,45.53
2018-09-14T11:50:23.766Z,48.40
2018-09-14T11:53:00.900Z,40.53
2018-09-14T11:55:34.254Z,40.80
2018-09-14T11:58:07.082Z,41.80
2018-09-14T12:00:41.211Z,43.33
2018-09-14T12:03:19.655Z,46.33
2018-09-14T12:05:56.041Z,30.37
2018-09-14T12:08:29.047Z,31.33
2018-09-14T12:11:02.058Z,36.30
2018-09-14T12:13:35.252Z,35.77
2018-09-14T12:16:08.140Z,32.13
2018-09-14T12:18:45.720Z,32.03
2018-09-14T12:21:18.697Z,39.80
2018-09-14T12:23:52.552Z,30.35
2018-09-14T12:26:25.461Z,32.93
2018-09-14T12:28:58.582Z,27.27
2018-09-14T12:31:37.986Z,29.10
2018-09-14T12:34:10.388Z,30.17
2018-09-14T12:36:46.230Z,36.70
2018-09-14T12:39:22.998Z,31.27
2018-09-14T12:41:59.153Z,31.17
2018-09-14T12:44:34.586Z,29.43
2018-09-14T12:47:10.704Z,33.77
2018-09-14T12:49:47.121Z,29.12
2018-09-14T12:52:24.235Z,30.87
2018-09-14T12:54:59.854Z,28.83
2018-09-14T12:57:37.838Z,91.53
2018-09-14T13:00:14.226Z,38.03
2018-09-14T13:02:48.733Z,36.33
2018-09-14T13:05:24.266Z,30.43
2018-09-14T13:08:01.493Z,29.53
2018-09-14T13:10:36.356Z,48.80
2018-09-14T13:13:10.182Z,32.83
2018-09-14T13:15:49.184Z,42.57
2018-09-14T13:18:24.671Z,39.97
2018-09-14T13:21:00.540Z,34.43
2018-09-14T13:23:35.774Z,54.80
2018-09-14T13:26:12.456Z,35.97
2018-09-14T13:28:48.517Z,33.17
2018-09-14T13:31:23.834Z,30.03
2018-09-14T13:33:59.564Z,30.87
2018-09-14T13:36:35.695Z,36.83
2018-09-14T13:39:11.601Z,33.40
2018-09-14T13:41:46.152Z,26.47
2018-09-14T13:44:19.226Z,27.93
2018-09-14T13:46:57.512Z,28.13
2018-09-14T13:49:30.602Z,26.57
2018-09-14T13:52:04.574Z,24.67
2018-09-14T13:54:38.529Z,24.40
2018-09-14T13:57:11.904Z,36.10
2018-09-14T13:59:54.103Z,25.60
2018-09-14T14:02:27.403Z,19.70
2018-09-14T14:05:04.779Z,23.73
2018-09-14T14:07:41.692Z,22.57
2018-09-14T14:10:21.905Z,23.70
2018-09-14T14:12:58.508Z,38.27
2018-09-14T14:15:35.296Z,70.50
2018-09-14T14:18:12.296Z,54.97
2018-09-14T14:20:52.590Z,30.43
2018-09-14T14:23:29.303Z,22.25
2018-09-14T14:26:07.329Z,33.83
2018-09-14T14:28:44.197Z,34.77
2018-09-14T14:31:22.241Z,44.83
2018-09-14T14:34:02.343Z,33.97
2018-09-14T14:36:36.690Z,40.43
2018-09-14T14:39:14.091Z,37.23
2018-09-14T14:41:51.532Z,40.50
2018-09-14T14:44:25.776Z,84.10
2018-09-14T14:47:00.017Z,43.30
2018-09-14T14:49:33.332Z,33.90
2018-09-14T14:52:08.260Z,24.90
2018-09-14T14:54:46.454Z,48.17
2018-09-14T14:57:21.508Z,40.17
2018-09-14T14:59:54.542Z,49.47
2018-09-14T15:02:27.689Z,63.27
2018-09-14T15:05:01.327Z,37.57
2018-09-14T15:07:34.711Z,27.33
2018-09-14T15:10:07.809Z,34.47
2018-09-14T15:12:41.018Z,37.77
2018-09-14T15:15:13.952Z,53.53
2018-09-14T15:17:46.989Z,30.30
2018-09-14T15:20:20.961Z,34.57
2018-09-14T15:22:53.967Z,30.07
2018-09-14T15:28:07.007Z,22.23
2018-09-14T15:30:40.112Z,18.20
2018-09-14T15:33:14.770Z,24.40
2018-09-14T15:35:48.246Z,18.07
2018-09-14T15:38:22.270Z,23.40
2018-09-14T15:41:08.937Z,20.70
2018-09-14T15:43:46.828Z,19.07
2018-09-14T15:46:20.152Z,18.03
2018-09-14T15:48:52.980Z,18.83
2018-09-14T15:51:30.010Z,19.30
2018-09-14T15:54:09.078Z,17.10
2018-09-14T15:56:42.219Z,20.00
2018-09-14T15:59:17.730Z,15.90
2018-09-14T16:01:50.917Z,22.33
2018-09-14T16:04:24.441Z,17.83
2018-09-14T16:06:59.700Z,19.83
2018-09-14T16:09:34.598Z,16.53
2018-09-14T16:12:09.677Z,19.37
2018-09-14T16:14:45.331Z,20.63
2018-09-14T16:17:23.905Z,18.90
2018-09-14T16:19:57.343Z,17.23
2018-09-14T16:22:32.112Z,14.60
2018-09-14T16:25:07.017Z,21.35
2018-09-14T16:27:44.601Z,17.10
2018-09-14T16:30:20.671Z,16.97
2018-09-14T16:32:55.896Z,18.73
2018-09-14T16:35:32.093Z,19.73
2018-09-14T16:38:06.033Z,18.73
2018-09-14T16:40:40.426Z,18.07
2018-09-14T16:43:17.048Z,15.90
2018-09-14T16:45:50.877Z,17.33
2018-09-14T16:48:32.097Z,17.17
2018-09-14T16:51:05.577Z,19.27
2018-09-14T16:53:44.175Z,18.70
2018-09-14T16:56:26.670Z,21.20
2018-09-14T16:59:00.943Z,14.83
2018-09-14T17:01:37.989Z,14.30
2018-09-14T17:04:13.164Z,16.60
2018-09-14T17:06:46.499Z,17.63
2018-09-14T17:09:19.967Z,14.13
2018-09-14T17:12:02.910Z,18.87
2018-09-14T17:14:36.322Z,13.07
2018-09-14T17:17:09.796Z,19.13
2018-09-14T17:19:42.784Z,15.83
2018-09-14T17:22:15.836Z,15.30
2018-09-14T17:24:48.949Z,16.67
2018-09-14T17:27:21.868Z,17.03
2018-09-14T17:30:02.169Z,16.00
2018-09-14T17:32:35.095Z,16.70
2018-09-14T17:35:08.069Z,23.87
2018-09-14T17:37:41.015Z,17.13
2018-09-14T17:40:13.861Z,17.30
2018-09-14T17:42:46.773Z,17.23
2018-09-14T17:45:19.757Z,23.17
2018-09-14T17:47:52.385Z,19.50
2018-09-14T17:50:25.537Z,12.67
2018-09-14T17:53:05.251Z,14.20
2018-09-14T17:55:38.367Z,14.77
2018-09-14T17:58:14.872Z,16.10
2018-09-14T18:00:54.761Z,13.50
2018-09-14T18:03:28.156Z,13.43
2018-09-14T18:06:01.723Z,14.40
2018-09-14T18:08:34.770Z,19.30
2018-09-14T18:11:07.663Z,22.20
2018-09-14T18:13:40.776Z,16.53
2018-09-14T18:16:13.660Z,15.77
2018-09-14T18:18:46.540Z,13.73
2018-09-14T18:21:19.793Z,18.83
2018-09-14T18:23:59.653Z,20.40
2018-09-14T18:26:35.214Z,14.07
2018-09-14T18:29:08.644Z,17.70
2018-09-14T18:31:42.699Z,15.63
2018-09-14T18:34:16.690Z,15.23
2018-09-14T18:36:49.883Z,14.53
2018-09-14T18:39:22.873Z,20.23
2018-09-14T18:41:57.148Z,17.20
2018-09-14T18:44:29.993Z,14.77
2018-09-14T18:47:02.880Z,21.00
2018-09-14T18:49:36.060Z,19.60
2018-09-14T18:52:08.983Z,15.77
2018-09-14T18:54:43.589Z,11.30
2018-09-14T18:57:22.033Z,12.70
2018-09-14T18:59:55.664Z,16.87
2018-09-14T19:02:35.792Z,15.10
2018-09-14T19:05:09.353Z,13.30
2018-09-14T19:07:42.822Z,11.93
2018-09-14T19:10:16.600Z,15.23
2018-09-14T19:12:49.584Z,17.20
2018-09-14T19:15:22.618Z,17.80
2018-09-14T19:17:55.486Z,17.47
2018-09-14T19:20:28.437Z,21.63
2018-09-14T19:23:01.504Z,17.87
2018-09-14T19:25:42.193Z,17.70
2018-09-14T19:28:22.995Z,14.97
2018-09-14T19:30:56.018Z,15.67
2018-09-14T19:33:29.056Z,11.87
2018-09-14T19:36:08.472Z,22.37
2018-09-14T19:38:42.331Z,14.00
2018-09-14T19:41:16.464Z,23.30
2018-09-14T19:43:49.540Z,15.60
2018-09-14T19:46:23.870Z,17.95
2018-09-14T19:48:56.880Z,20.70
2018-09-14T19:51:29.860Z,25.20
2018-09-14T19:56:56.261Z,15.20
2018-09-14T19:59:29.375Z,13.85
2018-09-14T20:02:02.805Z,16.33
2018-09-14T20:04:35.859Z,19.03
2018-09-14T20:07:14.893Z,16.60
2018-09-14T20:09:48.184Z,15.13
2018-09-14T20:12:22.154Z,16.33
2018-09-14T20:15:00.461Z,10.57
2018-09-14T20:17:33.556Z,12.33
2018-09-14T20:20:06.930Z,18.87
2018-09-14T20:22:39.821Z,16.33
2018-09-14T20:25:13.564Z,17.40
2018-09-14T20:27:46.884Z,17.83
2018-09-14T20:30:21.548Z,15.30
2018-09-14T20:32:54.706Z,18.53
2018-09-14T20:35:27.593Z,14.33
2018-09-14T20:38:03.104Z,16.87
2018-09-14T20:40:36.381Z,17.47
2018-09-14T20:43:09.742Z,16.87
2018-09-14T20:45:43.125Z,16.30
2018-09-14T20:48:16.902Z,19.53
2018-09-14T20:50:49.810Z,18.23
2018-09-14T20:53:22.712Z,15.83
2018-09-14T20:55:57.235Z,15.30
2018-09-14T20:58:30.334Z,14.67
2018-09-14T21:01:06.866Z,14.17
2018-09-14T21:03:40.136Z,12.50
2018-09-14T21:06:19.501Z,15.25
2018-09-14T21:08:52.703Z,12.83
2018-09-14T21:11:26.961Z,15.00
2018-09-14T21:14:00.523Z,13.67
2018-09-14T21:16:42.216Z,18.57
2018-09-14T21:19:17.870Z,26.07
2018-09-14T21:21:51.790Z,27.00
2018-09-14T21:25:53.638Z,25.63
2018-09-14T21:28:26.787Z,33.75
2018-09-14T21:30:59.745Z,19.07
2018-09-14T21:33:34.141Z,19.63
2018-09-14T21:36:07.060Z,17.77
2018-09-14T21:38:46.304Z,15.37
2018-09-14T21:41:19.314Z,17.37
2018-09-14T21:43:53.328Z,16.87
2018-09-14T21:46:27.629Z,16.83
2018-09-14T21:49:02.187Z,16.37
2018-09-14T21:51:35.560Z,20.03
2018-09-14T21:54:08.446Z,18.30
2018-09-14T21:56:41.871Z,20.20
2018-09-14T21:59:14.822Z,18.77
2018-09-14T22:01:54.377Z,17.23
2018-09-14T22:04:27.659Z,17.47
2018-09-14T22:07:00.710Z,16.10
2018-09-14T22:09:33.514Z,16.25
2018-09-14T22:12:06.777Z,14.30
2018-09-14T22:14:39.697Z,15.47
2018-09-14T22:17:12.690Z,16.10
2018-09-14T22:19:45.508Z,17.13
2018-09-14T22:22:18.861Z,17.67
2018-09-14T22:24:51.773Z,14.53
2018-09-14T22:27:25.036Z,12.63
2018-09-14T22:29:57.862Z,14.97
2018-09-14T22:32:30.777Z,14.07
2018-09-14T22:35:04.529Z,13.10
2018-09-14T22:37:37.952Z,11.57
2018-09-14T22:40:11.080Z,15.37
2018-09-14T22:42:44.866Z,12.90
2018-09-14T22:45:17.988Z,18.23
2018-09-14T22:47:50.881Z,15.97
2018-09-14T22:50:27.790Z,16.70
2018-09-14T22:53:06.514Z,17.50
2018-09-14T22:55:40.522Z,16.80
2018-09-14T22:58:13.377Z,16.30
2018-09-14T23:00:51.665Z,18.50
2018-09-14T23:03:24.755Z,23.20
2018-09-14T23:05:58.259Z,22.33
2018-09-14T23:08:31.460Z,32.80
2018-09-14T23:11:04.244Z,39.97
2018-09-14T23:13:45.018Z,47.27
2018-09-14T23:16:18.018Z,31.17
2018-09-14T23:18:51.375Z,26.57
2018-09-14T23:21:24.787Z,18.83
2018-09-14T23:24:00.587Z,18.93
2018-09-14T23:28:02.471Z,16.73
2018-09-14T23:30:38.897Z,20.23
2018-09-14T23:33:18.465Z,21.57
2018-09-14T23:35:56.498Z,23.50
2018-09-14T23:38:29.674Z,22.87
2018-09-14T23:41:02.649Z,25.10
2018-09-14T23:43:35.696Z,25.43
2018-09-14T23:46:09.547Z,28.23
2018-09-14T23:48:44.301Z,28.00
2018-09-14T23:51:17.812Z,26.80
2018-09-14T23:53:51.578Z,28.80
